createdAt,value
2018-03-06T00:00:49.848Z,1.47
2018-03-06T00:01:49.901Z,1.57
2018-03-06T00:02:49.955Z,1.43
2018-03-06T00:03:50.008Z,1.29
2018-03-06T00:04:50.061Z,1.46
2018-03-06T00:05:50.161Z,1.38
2018-03-06T00:06:50.169Z,1.42
2018-03-06T00:07:50.221Z,1.32
2018-03-06T00:08:50.526Z,1.36
2018-03-06T00:09:50.329Z,1.26
2018-03-06T00:10:50.382Z,1.28
2018-03-06T00:11:50.437Z,1.21
2018-03-06T00:12:50.487Z,1.10
2018-03-06T00:13:50.541Z,1.17
2018-03-06T00:14:50.594Z,1.14
2018-03-06T00:15:50.645Z,1.20
2018-03-06T00:16:50.703Z,1.16
2018-03-06T00:17:50.754Z,1.18
2018-03-06T00:18:50.807Z,1.17
2018-03-06T00:19:50.862Z,1.21
2018-03-06T00:20:50.913Z,1.17
2018-03-06T00:21:50.966Z,1.34
2018-03-06T00:22:51.021Z,1.21
2018-03-06T00:23:51.076Z,1.38
2018-03-06T00:24:51.125Z,1.31
2018-03-06T00:25:51.179Z,1.32
2018-03-06T00:26:51.232Z,1.42
2018-03-06T00:27:51.288Z,1.44
2018-03-06T00:28:51.337Z,1.47
2018-03-06T00:29:51.395Z,1.50
2018-03-06T00:30:51.444Z,1.49
2018-03-06T00:31:51.497Z,1.47
2018-03-06T00:32:51.550Z,1.56
2018-03-06T00:33:51.603Z,1.54
2018-03-06T00:34:51.657Z,1.56
2018-03-06T00:35:51.709Z,1.50
2018-03-06T00:36:51.762Z,1.47
2018-03-06T00:37:51.816Z,1.42
2018-03-06T00:38:51.871Z,1.39
2018-03-06T00:39:51.920Z,1.29
2018-03-06T00:40:51.975Z,1.47
2018-03-06T00:41:52.028Z,1.43
2018-03-06T00:42:52.080Z,1.46
2018-03-06T00:43:52.131Z,1.46
2018-03-06T00:44:52.195Z,1.42
2018-03-06T00:45:52.240Z,1.42
2018-03-06T00:46:52.293Z,1.38
2018-03-06T00:47:52.347Z,1.29
2018-03-06T00:48:52.397Z,1.43
2018-03-06T00:49:52.450Z,1.42
2018-03-06T00:50:52.504Z,1.43
2018-03-06T00:51:52.563Z,1.43
2018-03-06T00:52:52.608Z,1.53
2018-03-06T00:53:52.662Z,1.47
2018-03-06T00:54:52.715Z,1.47
2018-03-06T00:55:52.767Z,1.42
2018-03-06T00:56:52.821Z,1.31
2018-03-06T00:57:52.874Z,1.43
2018-03-06T00:58:52.929Z,1.34
2018-03-06T00:59:52.979Z,1.31
2018-03-06T01:00:53.033Z,1.25
2018-03-06T01:01:53.088Z,1.13
2018-03-06T01:02:53.139Z,1.16
2018-03-06T01:03:53.190Z,1.14
2018-03-06T01:04:53.243Z,1.16
2018-03-06T01:05:53.297Z,1.10
2018-03-06T01:06:53.351Z,1.07
2018-03-06T01:07:53.402Z,1.04
2018-03-06T01:08:53.455Z,0.99
2018-03-06T01:09:53.507Z,1.02
2018-03-06T01:10:53.561Z,0.96
2018-03-06T01:11:53.613Z,0.98
2018-03-06T01:12:53.667Z,0.93
2018-03-06T01:13:53.719Z,0.86
2018-03-06T01:14:53.773Z,0.84
2018-03-06T01:15:53.825Z,0.77
2018-03-06T01:16:53.878Z,0.74
2018-03-06T01:17:53.930Z,0.78
2018-03-06T01:18:53.985Z,0.68
2018-03-06T01:19:54.038Z,0.72
2018-03-06T01:20:54.090Z,0.68
2018-03-06T01:21:54.142Z,0.67
2018-03-06T01:22:54.198Z,0.68
2018-03-06T01:23:54.247Z,0.72
2018-03-06T01:24:54.300Z,0.70
2018-03-06T01:25:54.352Z,0.62
2018-03-06T01:26:54.406Z,0.68
2018-03-06T01:27:54.458Z,0.68
2018-03-06T01:28:54.511Z,0.63
2018-03-06T01:29:54.584Z,0.74
2018-03-06T01:30:54.616Z,0.78
2018-03-06T01:31:54.668Z,0.68
2018-03-06T01:32:54.722Z,0.70
2018-03-06T01:33:54.774Z,0.59
2018-03-06T01:34:54.828Z,0.57
2018-03-06T01:35:54.879Z,0.60
2018-03-06T01:36:54.934Z,0.63
2018-03-06T01:37:54.984Z,0.49
2018-03-06T01:38:55.038Z,0.59
2018-03-06T01:39:55.090Z,0.57
2018-03-06T01:40:55.142Z,0.51
2018-03-06T01:41:55.196Z,0.51
2018-03-06T01:42:55.249Z,0.53
2018-03-06T01:43:55.300Z,0.52
2018-03-06T01:44:55.353Z,0.49
2018-03-06T01:45:55.407Z,0.70
2018-03-06T01:46:55.460Z,0.78
2018-03-06T01:47:55.512Z,0.74
2018-03-06T01:48:55.564Z,0.70
2018-03-06T01:49:55.768Z,0.78
2018-03-06T01:50:55.673Z,0.72
2018-03-06T01:51:55.722Z,0.68
2018-03-06T01:52:55.775Z,0.63
2018-03-06T01:53:55.828Z,0.62
2018-03-06T01:54:55.882Z,0.53
2018-03-06T01:55:55.932Z,0.56
2018-03-06T01:56:55.985Z,0.52
2018-03-06T01:57:56.472Z,0.51
2018-03-06T01:58:56.496Z,0.51
2018-03-06T01:59:56.718Z,0.40
2018-03-06T02:00:56.738Z,0.53
2018-03-06T02:01:56.752Z,0.53
2018-03-06T02:02:56.302Z,0.52
2018-03-06T02:03:56.355Z,0.49
2018-03-06T02:04:56.406Z,0.52
2018-03-06T02:05:56.470Z,0.52
2018-03-06T02:06:56.512Z,0.53
2018-03-06T02:07:56.565Z,0.64
2018-03-06T02:08:56.618Z,0.60
2018-03-06T02:09:56.671Z,0.49
2018-03-06T02:10:56.723Z,0.43
2018-03-06T02:11:56.774Z,0.34
2018-03-06T02:12:56.830Z,0.37
2018-03-06T02:13:56.880Z,0.44
2018-03-06T02:14:56.932Z,0.30
2018-03-06T02:15:57.512Z,0.30
2018-03-06T02:16:57.428Z,0.26
2018-03-06T02:17:57.091Z,0.26
2018-03-06T02:18:57.142Z,0.28
2018-03-06T02:19:57.196Z,0.23
2018-03-06T02:20:57.248Z,0.28
2018-03-06T02:21:57.301Z,0.28
2018-03-06T02:22:57.357Z,0.23
2018-03-06T02:23:57.413Z,0.31
2018-03-06T02:24:57.468Z,0.22
2018-03-06T02:25:57.512Z,0.16
2018-03-06T02:26:57.564Z,0.23
2018-03-06T02:27:57.615Z,0.25
2018-03-06T02:28:57.669Z,0.23
2018-03-06T02:29:57.734Z,0.22
2018-03-06T02:30:57.774Z,0.22
2018-03-06T02:31:57.824Z,0.19
2018-03-06T02:32:57.877Z,0.23
2018-03-06T02:33:57.929Z,0.12
2018-03-06T02:34:57.986Z,0.19
2018-03-06T02:35:58.033Z,0.30
2018-03-06T02:36:58.087Z,0.10
2018-03-06T02:37:58.141Z,0.20
2018-03-06T02:38:58.193Z,0.19
2018-03-06T02:39:58.244Z,0.26
2018-03-06T02:40:58.296Z,0.22
2018-03-06T02:41:58.349Z,0.16
2018-03-06T02:42:58.401Z,0.26
2018-03-06T02:43:58.455Z,0.23
2018-03-06T02:44:58.506Z,0.23
2018-03-06T02:45:58.561Z,0.23
2018-03-06T02:46:58.612Z,0.28
2018-03-06T02:47:58.663Z,0.16
2018-03-06T02:48:58.716Z,0.15
2018-03-06T02:49:58.767Z,0.16
2018-03-06T02:50:58.820Z,0.25
2018-03-06T02:51:58.871Z,0.30
2018-03-06T02:52:58.950Z,0.22
2018-03-06T02:53:58.978Z,0.23
2018-03-06T02:54:59.029Z,0.22
2018-03-06T02:55:59.382Z,0.22
2018-03-06T02:56:59.135Z,0.30
2018-03-06T02:57:59.186Z,0.22
2018-03-06T02:58:59.254Z,0.22
2018-03-06T02:59:59.291Z,0.31
2018-03-06T03:00:59.343Z,0.23
2018-03-06T03:01:59.396Z,0.19
2018-03-06T03:02:59.449Z,0.19
2018-03-06T03:03:59.500Z,0.13
2018-03-06T03:04:59.553Z,0.25
2018-03-06T03:05:59.606Z,0.20
2018-03-06T03:06:59.657Z,0.20
2018-03-06T03:07:59.709Z,0.22
2018-03-06T03:08:59.762Z,0.16
2018-03-06T03:10:00.168Z,0.17
2018-03-06T03:10:59.866Z,0.17
2018-03-06T03:11:59.920Z,0.16
2018-03-06T03:12:59.970Z,0.10
2018-03-06T03:14:00.024Z,0.10
2018-03-06T03:15:00.078Z,0.15
2018-03-06T03:16:00.128Z,0.28
2018-03-06T03:17:00.181Z,0.16
2018-03-06T03:18:00.232Z,0.19
2018-03-06T03:19:00.287Z,0.07
2018-03-06T03:20:00.590Z,0.13
2018-03-06T03:21:00.392Z,0.16
2018-03-06T03:22:00.440Z,0.16
2018-03-06T03:23:00.517Z,0.15
2018-03-06T03:24:00.548Z,0.15
2018-03-06T03:25:00.598Z,0.23
2018-03-06T03:26:00.649Z,0.20
2018-03-06T03:27:00.703Z,0.17
2018-03-06T03:28:00.756Z,0.16
2018-03-06T03:29:00.806Z,0.19
2018-03-06T03:30:01.262Z,0.17
2018-03-06T03:31:00.912Z,0.19
2018-03-06T03:32:00.962Z,0.19
2018-03-06T03:33:01.017Z,0.19
2018-03-06T03:34:01.068Z,0.28
2018-03-06T03:35:01.121Z,0.20
2018-03-06T03:36:01.174Z,0.20
2018-03-06T03:37:01.225Z,0.22
2018-03-06T03:38:01.278Z,0.20
2018-03-06T03:39:01.330Z,0.23
2018-03-06T03:40:01.380Z,0.20
2018-03-06T03:41:01.433Z,0.20
2018-03-06T03:42:01.486Z,0.19
2018-03-06T03:43:01.539Z,0.19
2018-03-06T03:44:01.591Z,0.19
2018-03-06T03:45:01.644Z,0.20
2018-03-06T03:46:01.695Z,0.23
2018-03-06T03:47:01.772Z,0.19
2018-03-06T03:48:01.800Z,0.12
2018-03-06T03:49:01.851Z,0.31
2018-03-06T03:50:01.915Z,0.41
2018-03-06T03:51:01.957Z,0.35
2018-03-06T03:52:02.007Z,0.43
2018-03-06T03:53:02.062Z,0.35
2018-03-06T03:54:02.113Z,0.52
2018-03-06T03:55:02.174Z,0.38
2018-03-06T03:56:02.219Z,0.38
2018-03-06T03:57:02.270Z,0.44
2018-03-06T03:58:02.323Z,0.35
2018-03-06T03:59:02.376Z,0.40
2018-03-06T04:00:02.427Z,0.38
2018-03-06T04:01:02.480Z,0.45
2018-03-06T04:02:02.532Z,0.51
2018-03-06T04:03:02.585Z,0.48
2018-03-06T04:04:02.640Z,0.49
2018-03-06T04:05:02.689Z,0.52
2018-03-06T04:06:02.741Z,0.53
2018-03-06T04:07:02.797Z,0.60
2018-03-06T04:08:02.846Z,0.68
2018-03-06T04:09:02.899Z,0.64
2018-03-06T04:10:02.952Z,0.60
2018-03-06T04:11:03.006Z,0.64
2018-03-06T04:12:03.058Z,0.71
2018-03-06T04:13:03.110Z,0.68
2018-03-06T04:14:03.164Z,0.72
2018-03-06T04:15:03.215Z,0.68
2018-03-06T04:16:03.268Z,0.71
2018-03-06T04:17:03.320Z,0.63
2018-03-06T04:18:03.374Z,0.63
2018-03-06T04:19:03.427Z,0.75
2018-03-06T04:20:03.479Z,0.70
2018-03-06T04:21:03.531Z,0.71
2018-03-06T04:22:03.586Z,0.70
2018-03-06T04:23:03.639Z,0.71
2018-03-06T04:24:03.690Z,0.70
2018-03-06T04:25:03.742Z,0.64
2018-03-06T04:26:03.796Z,0.68
2018-03-06T04:27:03.848Z,0.70
2018-03-06T04:28:03.906Z,0.64
2018-03-06T04:29:03.955Z,0.70
2018-03-06T04:30:04.008Z,0.68
2018-03-06T04:31:04.060Z,0.68
2018-03-06T04:32:04.112Z,0.64
2018-03-06T04:33:04.166Z,0.70
2018-03-06T04:34:04.218Z,0.62
2018-03-06T04:35:04.270Z,0.59
2018-03-06T04:36:04.324Z,0.51
2018-03-06T04:37:04.377Z,0.63
2018-03-06T04:38:04.431Z,0.64
2018-03-06T04:39:04.482Z,0.59
2018-03-06T04:40:04.538Z,0.64
2018-03-06T04:41:04.586Z,0.67
2018-03-06T04:42:04.638Z,0.59
2018-03-06T04:43:04.690Z,0.53
2018-03-06T04:44:04.742Z,0.45
2018-03-06T04:45:04.799Z,0.59
2018-03-06T04:46:04.849Z,0.52
2018-03-06T04:47:04.901Z,0.41
2018-03-06T04:48:04.952Z,0.37
2018-03-06T04:49:05.005Z,0.38
2018-03-06T04:50:05.058Z,0.40
2018-03-06T04:51:05.110Z,0.53
2018-03-06T04:52:05.160Z,0.52
2018-03-06T04:53:05.214Z,0.49
2018-03-06T04:54:05.266Z,0.43
2018-03-06T04:55:05.319Z,0.56
2018-03-06T04:56:05.370Z,0.52
2018-03-06T04:57:05.423Z,0.53
2018-03-06T04:58:05.484Z,0.49
2018-03-06T04:59:05.526Z,0.45
2018-03-06T05:00:05.578Z,0.37
2018-03-06T05:01:05.648Z,0.37
2018-03-06T05:02:05.683Z,0.38
2018-03-06T05:03:05.735Z,0.51
2018-03-06T05:04:05.788Z,0.45
2018-03-06T05:05:05.843Z,0.49
2018-03-06T05:06:05.893Z,0.56
2018-03-06T05:07:05.946Z,0.60
2018-03-06T05:08:05.996Z,0.63
2018-03-06T05:09:06.048Z,0.60
2018-03-06T05:10:06.102Z,0.71
2018-03-06T05:11:06.170Z,0.62
2018-03-06T05:12:06.204Z,0.64
2018-03-06T05:13:06.258Z,0.67
2018-03-06T05:14:06.311Z,0.59
2018-03-06T05:15:06.363Z,0.53
2018-03-06T05:16:06.415Z,0.60
2018-03-06T05:17:06.467Z,0.52
2018-03-06T05:18:06.520Z,0.67
2018-03-06T05:19:06.577Z,0.60
2018-03-06T05:20:07.213Z,0.62
2018-03-06T05:21:06.676Z,0.56
2018-03-06T05:22:06.729Z,0.53
2018-03-06T05:23:06.791Z,0.52
2018-03-06T05:24:06.832Z,0.53
2018-03-06T05:25:06.901Z,0.49
2018-03-06T05:26:06.939Z,0.49
2018-03-06T05:27:06.992Z,0.45
2018-03-06T05:28:07.048Z,0.45
2018-03-06T05:29:07.094Z,0.49
2018-03-06T05:30:07.147Z,0.53
2018-03-06T05:31:07.200Z,0.51
2018-03-06T05:32:07.252Z,0.51
2018-03-06T05:33:07.308Z,0.49
2018-03-06T05:34:07.358Z,0.48
2018-03-06T05:35:07.409Z,0.45
2018-03-06T05:36:07.462Z,0.44
2018-03-06T05:37:07.513Z,0.53
2018-03-06T05:38:07.565Z,0.51
2018-03-06T05:39:07.620Z,0.53
2018-03-06T05:40:07.675Z,0.51
2018-03-06T05:41:07.722Z,0.51
2018-03-06T05:42:07.775Z,0.56
2018-03-06T05:43:07.832Z,0.51
2018-03-06T05:44:07.879Z,0.52
2018-03-06T05:45:07.933Z,0.60
2018-03-06T05:46:07.984Z,0.67
2018-03-06T05:47:08.036Z,0.71
2018-03-06T05:48:08.088Z,0.64
2018-03-06T05:49:08.141Z,0.64
2018-03-06T05:50:08.218Z,0.70
2018-03-06T05:51:08.245Z,0.71
2018-03-06T05:52:08.296Z,0.63
2018-03-06T05:53:08.348Z,0.67
2018-03-06T05:54:08.402Z,0.63
2018-03-06T05:55:09.164Z,0.67
2018-03-06T05:56:08.506Z,0.71
2018-03-06T05:57:08.558Z,0.67
2018-03-06T05:58:08.613Z,0.75
2018-03-06T05:59:08.664Z,0.71
2018-03-06T06:00:08.714Z,0.70
2018-03-06T06:01:08.769Z,0.70
2018-03-06T06:02:08.819Z,0.63
2018-03-06T06:03:08.871Z,0.74
2018-03-06T06:04:08.924Z,0.68
2018-03-06T06:05:08.976Z,0.64
2018-03-06T06:06:09.029Z,0.77
2018-03-06T06:07:09.082Z,0.71
2018-03-06T06:08:09.141Z,0.68
2018-03-06T06:09:09.184Z,0.68
2018-03-06T06:10:09.254Z,0.68
2018-03-06T06:11:09.289Z,0.71
2018-03-06T06:12:09.343Z,0.71
2018-03-06T06:13:09.399Z,0.68
2018-03-06T06:14:09.446Z,0.70
2018-03-06T06:15:09.520Z,0.80
2018-03-06T06:16:09.550Z,0.71
2018-03-06T06:17:09.604Z,0.71
2018-03-06T06:18:09.657Z,0.70
2018-03-06T06:19:09.710Z,0.81
2018-03-06T06:20:09.764Z,0.81
2018-03-06T06:21:09.812Z,0.86
2018-03-06T06:22:09.882Z,0.81
2018-03-06T06:23:10.245Z,0.78
2018-03-06T06:24:09.969Z,0.71
2018-03-06T06:25:10.023Z,0.81
2018-03-06T06:26:10.076Z,0.64
2018-03-06T06:27:10.130Z,0.68
2018-03-06T06:28:10.230Z,0.74
2018-03-06T06:29:10.232Z,0.80
2018-03-06T06:30:10.758Z,0.68
2018-03-06T06:31:10.710Z,0.71
2018-03-06T06:32:10.390Z,0.71
2018-03-06T06:33:10.442Z,0.89
2018-03-06T06:34:10.838Z,0.80
2018-03-06T06:35:10.549Z,0.88
2018-03-06T06:36:10.602Z,0.75
2018-03-06T06:37:10.652Z,0.70
2018-03-06T06:38:10.704Z,0.71
2018-03-06T06:39:10.763Z,0.71
2018-03-06T06:40:10.809Z,0.77
2018-03-06T06:41:10.862Z,0.90
2018-03-06T06:42:10.934Z,0.89
2018-03-06T06:43:10.967Z,1.00
2018-03-06T06:44:11.022Z,1.02
2018-03-06T06:45:11.075Z,0.88
2018-03-06T06:46:11.126Z,0.92
2018-03-06T06:47:11.179Z,0.70
2018-03-06T06:48:11.229Z,0.81
2018-03-06T06:49:11.282Z,0.80
2018-03-06T06:50:11.337Z,0.88
2018-03-06T06:51:11.390Z,0.84
2018-03-06T06:52:11.440Z,0.84
2018-03-06T06:53:11.493Z,0.88
2018-03-06T06:54:11.549Z,0.81
2018-03-06T06:55:11.598Z,0.78
2018-03-06T06:56:11.653Z,0.82
2018-03-06T06:57:11.706Z,0.90
2018-03-06T06:58:11.758Z,0.99
2018-03-06T06:59:11.810Z,1.08
2018-03-06T07:00:11.865Z,1.08
2018-03-06T07:01:11.916Z,1.11
2018-03-06T07:02:11.968Z,1.13
2018-03-06T07:03:12.021Z,1.10
2018-03-06T07:04:12.072Z,1.08
2018-03-06T07:05:12.124Z,1.08
2018-03-06T07:06:12.179Z,1.17
2018-03-06T07:07:12.232Z,1.00
2018-03-06T07:08:12.283Z,1.04
2018-03-06T07:09:12.339Z,1.02
2018-03-06T07:10:12.388Z,1.08
2018-03-06T07:11:12.444Z,1.11
2018-03-06T07:12:12.494Z,1.13
2018-03-06T07:13:12.592Z,1.21
2018-03-06T07:14:12.601Z,1.18
2018-03-06T07:15:12.653Z,1.07
2018-03-06T07:16:12.709Z,0.95
2018-03-06T07:17:12.760Z,0.88
2018-03-06T07:18:12.811Z,0.84
2018-03-06T07:19:12.882Z,1.00
2018-03-06T07:20:12.916Z,1.10
2018-03-06T07:21:13.036Z,1.17
2018-03-06T07:22:13.023Z,1.18
2018-03-06T07:23:13.077Z,1.11
2018-03-06T07:24:13.139Z,1.14
2018-03-06T07:25:13.546Z,1.10
2018-03-06T07:26:13.235Z,1.20
2018-03-06T07:27:13.295Z,1.18
2018-03-06T07:28:13.342Z,1.24
2018-03-06T07:29:13.392Z,1.20
2018-03-06T07:30:13.447Z,1.21
2018-03-06T07:31:13.500Z,1.18
2018-03-06T07:32:13.559Z,1.20
2018-03-06T07:33:13.606Z,1.26
2018-03-06T07:34:13.659Z,1.25
2018-03-06T07:35:13.712Z,1.31
2018-03-06T07:36:13.768Z,1.24
2018-03-06T07:37:14.067Z,1.26
2018-03-06T07:38:13.870Z,1.34
2018-03-06T07:39:13.925Z,1.29
2018-03-06T07:40:13.976Z,1.44
2018-03-06T07:41:14.029Z,1.39
2018-03-06T07:42:14.083Z,1.53
2018-03-06T07:43:14.135Z,1.52
2018-03-06T07:44:14.191Z,1.53
2018-03-06T07:45:14.243Z,1.60
2018-03-06T07:46:14.296Z,1.65
2018-03-06T07:47:15.071Z,1.63
2018-03-06T07:48:14.402Z,1.53
2018-03-06T07:49:14.458Z,1.60
2018-03-06T07:50:14.510Z,1.63
2018-03-06T07:51:14.564Z,1.64
2018-03-06T07:52:14.615Z,1.68
2018-03-06T07:53:14.669Z,1.74
2018-03-06T07:54:14.723Z,1.67
2018-03-06T07:55:14.777Z,1.72
2018-03-06T07:56:14.831Z,1.74
2018-03-06T07:57:14.940Z,1.64
2018-03-06T07:58:14.937Z,1.70
2018-03-06T07:59:15.000Z,1.79
2018-03-06T08:00:15.377Z,1.63
2018-03-06T08:01:15.098Z,1.68
2018-03-06T08:02:15.151Z,1.71
2018-03-06T08:03:15.245Z,1.74
2018-03-06T08:04:15.259Z,1.88
2018-03-06T08:05:15.312Z,1.81
2018-03-06T08:06:15.367Z,1.82
2018-03-06T08:07:15.421Z,1.88
2018-03-06T08:08:15.475Z,1.92
2018-03-06T08:09:15.527Z,1.90
2018-03-06T08:10:15.581Z,1.85
2018-03-06T08:11:15.635Z,1.81
2018-03-06T08:12:15.689Z,1.88
2018-03-06T08:13:15.743Z,1.90
2018-03-06T08:14:15.798Z,1.85
2018-03-06T08:15:15.852Z,2.04
2018-03-06T08:16:15.910Z,2.18
2018-03-06T08:17:15.959Z,2.22
2018-03-06T08:18:16.015Z,2.19
2018-03-06T08:19:16.069Z,2.26
2018-03-06T08:20:16.127Z,2.29
2018-03-06T08:21:16.176Z,2.33
2018-03-06T08:22:16.231Z,2.37
2018-03-06T08:23:16.286Z,2.27
2018-03-06T08:24:16.339Z,2.33
2018-03-06T08:25:16.398Z,2.43
2018-03-06T08:26:16.449Z,2.37
2018-03-06T08:27:16.503Z,2.36
2018-03-06T08:28:17.081Z,2.36
2018-03-06T08:29:17.002Z,2.40
2018-03-06T08:30:16.669Z,2.37
2018-03-06T08:31:16.721Z,2.33
2018-03-06T08:32:16.775Z,2.26
2018-03-06T08:33:16.832Z,2.26
2018-03-06T08:34:43.011Z,2.32
2018-03-06T08:35:16.940Z,2.37
2018-03-06T08:36:16.993Z,2.36
2018-03-06T08:37:17.049Z,2.38
2018-03-06T08:38:17.104Z,2.47
2018-03-06T08:39:17.159Z,2.50
2018-03-06T08:40:17.214Z,2.55
2018-03-06T08:41:17.271Z,2.58
2018-03-06T08:42:17.322Z,2.47
2018-03-06T08:43:17.414Z,2.38
2018-03-06T08:44:17.431Z,2.45
2018-03-06T08:45:22.333Z,2.37
2018-03-06T08:46:17.577Z,2.36
2018-03-06T08:47:17.599Z,2.37
2018-03-06T08:48:17.651Z,2.36
2018-03-06T08:49:17.707Z,2.45
2018-03-06T08:50:17.764Z,2.50
2018-03-06T08:51:17.817Z,2.43
2018-03-06T08:52:17.869Z,2.45
2018-03-06T08:53:17.940Z,2.44
2018-03-06T08:54:17.980Z,2.48
2018-03-06T08:55:18.058Z,2.48
2018-03-06T08:56:18.090Z,2.36
2018-03-06T08:57:18.158Z,2.30
2018-03-06T08:58:18.201Z,2.41
2018-03-06T08:59:18.255Z,2.48
2018-03-06T09:00:19.048Z,2.51
2018-03-06T09:01:18.363Z,2.53
2018-03-06T09:02:18.420Z,2.50
2018-03-06T09:03:18.473Z,2.55
2018-03-06T09:04:18.529Z,2.55
2018-03-06T09:05:18.583Z,2.62
2018-03-06T09:06:18.639Z,2.62
2018-03-06T09:07:18.693Z,2.68
2018-03-06T09:08:18.760Z,2.74
2018-03-06T09:09:18.803Z,2.71
2018-03-06T09:10:18.857Z,2.68
2018-03-06T09:11:18.915Z,2.68
2018-03-06T09:12:18.966Z,2.66
2018-03-06T09:13:19.022Z,2.77
2018-03-06T09:14:19.078Z,2.81
2018-03-06T09:15:19.132Z,2.89
2018-03-06T09:16:19.187Z,2.89
2018-03-06T09:17:19.244Z,3.02
2018-03-06T09:18:19.296Z,3.04
2018-03-06T09:19:20.164Z,3.05
2018-03-06T09:20:19.429Z,3.10
2018-03-06T09:21:19.790Z,3.17
2018-03-06T09:22:19.520Z,3.26
2018-03-06T09:23:19.572Z,3.28
2018-03-06T09:24:19.632Z,3.31
2018-03-06T09:25:19.682Z,3.39
2018-03-06T09:26:19.737Z,3.41
2018-03-06T09:27:19.795Z,3.33
2018-03-06T09:28:20.193Z,3.39
2018-03-06T09:29:19.907Z,3.50
2018-03-06T09:30:20.302Z,3.52
2018-03-06T09:31:20.013Z,3.74
2018-03-06T09:32:20.068Z,3.68
2018-03-06T09:33:20.123Z,3.72
2018-03-06T09:34:20.179Z,3.89
2018-03-06T09:35:20.239Z,3.88
2018-03-06T09:36:20.375Z,3.88
2018-03-06T09:37:20.346Z,3.88
2018-03-06T09:38:20.433Z,3.98
2018-03-06T09:39:20.460Z,4.08
2018-03-06T09:40:20.541Z,4.16
2018-03-06T09:41:20.569Z,4.13
2018-03-06T09:42:20.623Z,4.13
2018-03-06T09:43:20.679Z,4.25
2018-03-06T09:44:20.735Z,4.36
2018-03-06T09:45:20.792Z,4.43
2018-03-06T09:46:20.847Z,4.47
2018-03-06T09:47:21.496Z,4.42
2018-03-06T09:48:20.963Z,4.53
2018-03-06T09:49:21.015Z,4.51
2018-03-06T09:50:21.103Z,4.57
2018-03-06T09:51:21.129Z,4.49
2018-03-06T09:52:21.209Z,4.59
2018-03-06T09:53:21.239Z,4.74
2018-03-06T09:54:21.308Z,4.72
2018-03-06T09:55:21.352Z,4.80
2018-03-06T09:56:21.411Z,4.91
2018-03-06T09:57:21.943Z,4.93
2018-03-06T09:58:21.522Z,5.01
2018-03-06T09:59:21.592Z,5.02
2018-03-06T10:00:21.662Z,5.05
2018-03-06T10:01:22.138Z,5.09
2018-03-06T10:02:21.748Z,5.19
2018-03-06T10:03:22.472Z,5.08
2018-03-06T10:04:21.863Z,5.11
2018-03-06T10:05:22.116Z,5.12
2018-03-06T10:06:21.977Z,5.30
2018-03-06T10:07:22.034Z,5.35
2018-03-06T10:08:22.090Z,5.33
2018-03-06T10:09:22.150Z,5.45
2018-03-06T10:10:22.204Z,5.59
2018-03-06T10:11:22.262Z,5.62
2018-03-06T10:12:22.319Z,5.77
2018-03-06T10:13:22.490Z,5.77
2018-03-06T10:14:22.433Z,5.87
2018-03-06T10:15:22.490Z,5.70
2018-03-06T10:16:22.607Z,5.81
2018-03-06T10:17:22.605Z,5.85
2018-03-06T10:18:22.663Z,5.96
2018-03-06T10:19:22.721Z,6.11
2018-03-06T10:20:22.777Z,6.13
2018-03-06T10:21:23.303Z,6.11
2018-03-06T10:22:22.893Z,6.24
2018-03-06T10:23:22.957Z,6.24
2018-03-06T10:24:23.012Z,6.46
2018-03-06T10:25:23.066Z,6.46
2018-03-06T10:26:23.768Z,6.54
2018-03-06T10:27:23.186Z,6.42
2018-03-06T10:28:23.241Z,6.55
2018-03-06T10:29:23.298Z,6.61
2018-03-06T10:30:23.356Z,6.68
2018-03-06T10:31:23.415Z,6.60
2018-03-06T10:32:23.472Z,6.60
2018-03-06T10:33:24.157Z,6.55
2018-03-06T10:34:24.412Z,6.54
2018-03-06T10:35:24.447Z,6.48
2018-03-06T10:36:24.679Z,6.58
2018-03-06T10:37:24.160Z,6.48
2018-03-06T10:38:24.393Z,6.55
2018-03-06T10:39:24.494Z,6.69
2018-03-06T10:40:27.861Z,6.69
2018-03-06T10:41:24.915Z,6.79
2018-03-06T10:42:24.751Z,6.87
2018-03-06T10:43:24.824Z,6.96
2018-03-06T10:44:24.177Z,6.96
2018-03-06T10:45:24.232Z,6.89
2018-03-06T10:46:25.118Z,6.97
2018-03-06T10:47:25.542Z,7.05
2018-03-06T10:48:25.516Z,7.15
2018-03-06T10:49:25.231Z,7.08
2018-03-06T10:50:25.115Z,7.21
2018-03-06T10:51:24.592Z,7.18
2018-03-06T10:52:25.170Z,7.23
2018-03-06T10:53:25.251Z,7.21
2018-03-06T10:54:25.276Z,7.21
2018-03-06T10:55:24.819Z,7.19
2018-03-06T10:56:24.877Z,7.21
2018-03-06T10:57:25.388Z,7.36
2018-03-06T10:58:25.037Z,7.39
2018-03-06T10:59:25.485Z,7.52
2018-03-06T11:00:25.129Z,7.48
2018-03-06T11:01:25.171Z,7.50
2018-03-06T11:02:25.556Z,7.62
2018-03-06T11:03:25.290Z,7.63
2018-03-06T11:04:25.366Z,7.84
2018-03-06T11:05:25.967Z,7.86
2018-03-06T11:06:26.099Z,7.82
2018-03-06T11:07:25.527Z,7.92
2018-03-06T11:08:25.582Z,8.07
2018-03-06T11:09:25.661Z,8.13
2018-03-06T11:10:25.701Z,8.22
2018-03-06T11:11:25.763Z,8.27
2018-03-06T11:12:25.821Z,8.34
2018-03-06T11:13:25.879Z,8.39
2018-03-06T11:14:25.953Z,8.60
2018-03-06T11:15:25.999Z,8.58
2018-03-06T11:16:26.056Z,8.65
2018-03-06T11:17:26.116Z,8.61
2018-03-06T11:18:26.204Z,8.78
2018-03-06T11:19:27.072Z,8.98
2018-03-06T11:20:26.883Z,9.06
2018-03-06T11:21:27.044Z,9.16
2018-03-06T11:22:27.098Z,9.32
2018-03-06T11:23:26.474Z,9.35
2018-03-06T11:24:26.684Z,9.63
2018-03-06T11:25:26.597Z,9.73
2018-03-06T11:26:26.653Z,9.74
2018-03-06T11:27:26.713Z,9.80
2018-03-06T11:28:26.774Z,9.86
2018-03-06T11:29:26.837Z,10.11
2018-03-06T11:30:26.895Z,10.20
2018-03-06T11:31:26.956Z,10.42
2018-03-06T11:32:27.015Z,10.83
2018-03-06T11:33:27.077Z,10.81
2018-03-06T11:34:27.136Z,10.68
2018-03-06T11:35:27.215Z,10.88
2018-03-06T11:36:27.259Z,10.94
2018-03-06T11:37:27.320Z,11.08
2018-03-06T11:38:27.384Z,11.44
2018-03-06T11:39:27.442Z,11.49
2018-03-06T11:40:28.053Z,11.27
2018-03-06T11:41:27.570Z,11.54
2018-03-06T11:42:28.170Z,11.67
2018-03-06T11:43:28.483Z,11.57
2018-03-06T11:44:27.753Z,11.38
2018-03-06T11:45:27.810Z,11.44
2018-03-06T11:46:27.872Z,11.48
2018-03-06T11:47:27.936Z,11.48
2018-03-06T11:48:27.996Z,11.78
2018-03-06T11:49:28.057Z,11.67
2018-03-06T11:50:28.118Z,11.62
2018-03-06T11:51:28.180Z,11.59
2018-03-06T11:52:28.942Z,11.70
2018-03-06T11:53:28.304Z,12.01
2018-03-06T11:54:28.366Z,12.13
2018-03-06T11:55:28.429Z,12.19
2018-03-06T11:56:28.488Z,12.43
2018-03-06T11:57:28.551Z,12.41
2018-03-06T11:58:28.865Z,12.59
2018-03-06T11:59:28.678Z,12.58
2018-03-06T12:00:28.737Z,12.70
2018-03-06T12:01:28.799Z,12.62
2018-03-06T12:02:28.866Z,12.52
2018-03-06T12:03:28.925Z,12.51
2018-03-06T12:04:28.987Z,12.43
2018-03-06T12:05:29.049Z,12.07
2018-03-06T12:06:29.111Z,11.93
2018-03-06T12:07:29.175Z,11.85
2018-03-06T12:08:29.376Z,12.00
2018-03-06T12:09:29.300Z,11.85
2018-03-06T12:10:29.363Z,11.87
2018-03-06T12:11:29.424Z,12.11
2018-03-06T12:12:29.485Z,12.30
2018-03-06T12:13:29.549Z,12.31
2018-03-06T12:14:29.612Z,12.44
2018-03-06T12:15:29.674Z,12.55
2018-03-06T12:16:29.736Z,12.51
2018-03-06T12:17:29.799Z,12.73
2018-03-06T12:18:29.865Z,12.63
2018-03-06T12:19:29.925Z,12.55
2018-03-06T12:20:30.236Z,12.16
2018-03-06T12:21:30.061Z,12.03
2018-03-06T12:22:30.110Z,11.90
2018-03-06T12:23:30.174Z,11.85
2018-03-06T12:24:30.236Z,11.78
2018-03-06T12:25:30.298Z,11.57
2018-03-06T12:26:30.361Z,11.75
2018-03-06T12:27:30.424Z,11.85
2018-03-06T12:28:30.485Z,12.01
2018-03-06T12:29:30.549Z,12.22
2018-03-06T12:30:30.610Z,12.49
2018-03-06T12:31:30.673Z,12.43
2018-03-06T12:32:30.885Z,12.59
2018-03-06T12:33:30.797Z,12.56
2018-03-06T12:34:30.860Z,12.54
2018-03-06T12:35:30.922Z,12.59
2018-03-06T12:36:30.983Z,12.67
2018-03-06T12:37:31.048Z,12.54
2018-03-06T12:38:31.110Z,12.54
2018-03-06T12:39:31.171Z,12.51
2018-03-06T12:40:31.234Z,12.70
2018-03-06T12:41:31.298Z,12.80
2018-03-06T12:42:31.358Z,13.09
2018-03-06T12:43:31.421Z,13.51
2018-03-06T12:44:31.484Z,13.63
2018-03-06T12:45:31.546Z,13.86
2018-03-06T12:46:31.608Z,14.21
2018-03-06T12:47:31.671Z,14.54
2018-03-06T12:48:31.737Z,14.67
2018-03-06T12:49:31.796Z,15.20
2018-03-06T12:50:31.859Z,15.41
2018-03-06T12:51:31.921Z,15.37
2018-03-06T12:52:31.985Z,15.84
2018-03-06T12:53:32.048Z,15.91
2018-03-06T12:54:32.112Z,16.26
2018-03-06T12:55:32.177Z,16.16
2018-03-06T12:56:32.244Z,16.42
2018-03-06T12:57:32.302Z,16.34
2018-03-06T12:58:32.366Z,16.67
2018-03-06T12:59:32.431Z,17.18
2018-03-06T13:00:32.492Z,17.15
2018-03-06T13:01:32.558Z,17.28
2018-03-06T13:02:32.622Z,16.99
2018-03-06T13:03:32.687Z,16.45
2018-03-06T13:04:32.751Z,16.96
2018-03-06T13:05:32.816Z,16.25
2018-03-06T13:06:32.881Z,16.29
2018-03-06T13:07:32.947Z,16.34
2018-03-06T13:08:33.010Z,16.48
2018-03-06T13:09:33.076Z,16.82
2018-03-06T13:10:33.142Z,16.84
2018-03-06T13:11:33.208Z,17.12
2018-03-06T13:12:33.299Z,17.32
2018-03-06T13:13:33.338Z,17.80
2018-03-06T13:14:33.405Z,17.58
2018-03-06T13:15:33.469Z,17.76